createdAt,value
2023-04-28T05:03:37.519Z,20.03
2023-04-28T05:04:38.535Z,20.25
2023-04-28T05:05:38.432Z,20.32
2023-04-28T05:06:38.510Z,20.36
2023-04-28T05:07:37.500Z,20.39
2023-04-28T05:08:38.523Z,20.41
2023-04-28T05:09:38.577Z,20.45
2023-04-28T05:10:38.541Z,20.46
2023-04-28T05:11:37.583Z,20.47
2023-04-28T05:12:37.590Z,20.49
2023-04-28T05:13:38.645Z,20.50
2023-04-28T05:14:37.689Z,20.51
2023-04-28T05:15:38.749Z,20.51
2023-04-28T05:16:38.896Z,20.52
2023-04-28T05:17:37.942Z,20.53
2023-04-28T05:18:37.955Z,20.54
2023-04-28T05:19:39.061Z,20.54
2023-04-28T05:20:38.027Z,20.55
2023-04-28T05:21:39.097Z,20.55
2023-04-28T05:22:38.137Z,20.56
2023-04-28T05:23:38.213Z,20.57
2023-04-28T05:24:39.241Z,20.57
2023-04-28T05:25:39.294Z,20.58
2023-04-28T05:26:38.342Z,20.57
2023-04-28T05:27:39.477Z,20.60
2023-04-28T05:28:39.431Z,20.63
2023-04-28T05:29:38.517Z,20.66
2023-04-28T05:30:39.530Z,20.70
2023-04-28T05:31:39.603Z,20.72
2023-04-28T05:32:39.617Z,20.75
2023-04-28T05:33:39.668Z,20.81
2023-04-28T05:34:39.682Z,20.87
2023-04-28T05:35:38.802Z,20.92
2023-04-28T05:36:39.723Z,20.98
2023-04-28T05:37:39.743Z,21.02
2023-04-28T05:38:39.759Z,21.03
2023-04-28T05:39:38.789Z,21.10
2023-04-28T05:40:39.812Z,21.15
2023-04-28T05:41:39.810Z,21.20
2023-04-28T05:42:39.815Z,21.23
2023-04-28T05:43:39.815Z,21.24
2023-04-28T05:44:41.800Z,21.23
2023-04-28T05:45:39.856Z,21.24
2023-04-28T05:46:38.945Z,21.25
2023-04-28T05:47:39.842Z,21.24
2023-04-28T05:48:38.879Z,21.24
2023-04-28T05:49:39.781Z,21.26
2023-04-28T05:50:39.767Z,21.30
2023-04-28T05:51:38.793Z,21.31
2023-04-28T05:52:39.761Z,21.33
2023-04-28T05:53:39.744Z,21.32
2023-04-28T05:54:38.728Z,21.37
2023-04-28T05:55:39.746Z,21.41
2023-04-28T05:56:39.713Z,21.44
2023-04-28T05:57:51.803Z,21.49
2023-04-28T05:58:39.747Z,21.52
2023-04-28T05:59:39.711Z,21.58
2023-04-28T06:00:39.740Z,21.64
2023-04-28T06:01:38.681Z,21.53
2023-04-28T06:02:39.776Z,21.21
2023-04-28T06:03:40.114Z,20.90
2023-04-28T06:04:39.923Z,20.87
2023-04-28T06:05:39.016Z,20.93
2023-04-28T06:06:39.848Z,21.02
2023-04-28T06:07:39.687Z,21.14
2023-04-28T06:08:38.644Z,21.24
2023-04-28T06:09:38.624Z,21.36
2023-04-28T06:10:38.620Z,21.46
2023-04-28T06:11:38.741Z,21.55
2023-04-28T06:12:39.615Z,21.65
2023-04-28T06:13:39.649Z,21.73
2023-04-28T06:14:38.601Z,21.81
2023-04-28T06:15:39.677Z,21.86
2023-04-28T06:16:39.572Z,21.92
2023-04-28T06:17:39.691Z,22.01
2023-04-28T06:18:38.573Z,22.06
2023-04-28T06:19:39.552Z,22.12
2023-04-28T06:20:39.549Z,22.17
2023-04-28T06:21:38.589Z,22.21
2023-04-28T06:22:38.544Z,22.24
2023-04-28T06:23:38.574Z,22.27
2023-04-28T06:24:39.509Z,22.31
2023-04-28T06:25:38.534Z,22.33
2023-04-28T06:26:38.553Z,22.37
2023-04-28T06:27:38.551Z,22.41
2023-04-28T06:28:39.501Z,22.46
2023-04-28T06:29:39.497Z,22.49
2023-04-28T06:30:39.510Z,22.52
2023-04-28T06:31:38.644Z,22.53
2023-04-28T06:32:38.659Z,22.55
2023-04-28T06:33:38.547Z,22.58
2023-04-28T06:34:38.552Z,22.60
2023-04-28T06:35:39.505Z,22.67
2023-04-28T06:36:38.550Z,22.72
2023-04-28T06:37:39.504Z,22.75
2023-04-28T06:38:38.594Z,22.79
2023-04-28T06:39:38.606Z,22.81
2023-04-28T06:40:39.613Z,22.85
2023-04-28T06:41:38.662Z,22.89
2023-04-28T06:42:38.724Z,22.92
2023-04-28T06:43:38.778Z,22.88
2023-04-28T06:44:39.736Z,22.89
2023-04-28T06:45:39.736Z,22.92
2023-04-28T06:46:39.771Z,22.94
2023-04-28T06:47:38.835Z,22.96
2023-04-28T06:48:38.725Z,22.95
2023-04-28T06:49:44.808Z,22.97
2023-04-28T06:50:41.174Z,23.01
2023-04-28T06:51:39.715Z,22.98
2023-04-28T06:52:40.063Z,22.97
2023-04-28T06:53:38.688Z,22.77
2023-04-28T06:54:39.903Z,22.34
2023-04-28T06:55:39.729Z,21.87
2023-04-28T06:56:39.719Z,21.46
2023-04-28T06:57:39.703Z,21.38
2023-04-28T06:58:39.654Z,21.44
2023-04-28T06:59:38.657Z,21.53
2023-04-28T07:00:39.687Z,21.64
2023-04-28T07:01:39.740Z,21.77
2023-04-28T07:02:39.773Z,21.89
2023-04-28T07:03:38.937Z,21.98
2023-04-28T07:04:38.632Z,22.08
2023-04-28T07:05:39.593Z,22.17
2023-04-28T07:06:38.611Z,22.23
2023-04-28T07:07:38.622Z,22.31
2023-04-28T07:08:38.567Z,22.38
2023-04-28T07:09:38.583Z,22.45
2023-04-28T07:10:38.582Z,22.53
2023-04-28T07:11:39.573Z,22.60
2023-04-28T07:12:38.578Z,22.66
2023-04-28T07:13:39.532Z,22.72
2023-04-28T07:14:39.545Z,22.75
2023-04-28T07:15:39.532Z,22.79
2023-04-28T07:16:38.634Z,22.79
2023-04-28T07:17:39.565Z,22.83
2023-04-28T07:18:38.534Z,22.85
2023-04-28T07:19:39.486Z,22.87
2023-04-28T07:20:39.490Z,22.86
2023-04-28T07:21:38.476Z,22.87
2023-04-28T07:22:39.490Z,22.88
2023-04-28T07:23:39.462Z,22.90
2023-04-28T07:24:39.479Z,22.90
2023-04-28T07:25:39.437Z,22.94
2023-04-28T07:26:38.442Z,22.94
2023-04-28T07:27:38.443Z,22.98
2023-04-28T07:28:38.420Z,22.99
2023-04-28T07:29:38.413Z,23.01
2023-04-28T07:30:38.418Z,23.01
2023-04-28T07:31:39.434Z,23.01
2023-04-28T07:32:39.426Z,23.02
2023-04-28T07:33:39.391Z,23.03
2023-04-28T07:34:38.406Z,23.03
2023-04-28T07:35:39.365Z,23.03
2023-04-28T07:36:39.371Z,23.04
2023-04-28T07:37:39.353Z,23.03
2023-04-28T07:38:39.336Z,23.03
2023-04-28T07:39:38.371Z,23.05
2023-04-28T07:40:39.329Z,23.06
2023-04-28T07:41:38.384Z,23.07
2023-04-28T07:42:38.406Z,23.09
2023-04-28T07:43:39.490Z,23.10
2023-04-28T07:44:39.538Z,23.11
2023-04-28T07:45:39.746Z,23.11
2023-04-28T07:46:39.641Z,23.10
2023-04-28T07:47:39.678Z,22.90
2023-04-28T07:48:39.679Z,22.40
2023-04-28T07:49:40.003Z,21.86
2023-04-28T07:50:39.708Z,21.42
2023-04-28T07:51:39.762Z,21.22
2023-04-28T07:52:39.804Z,21.19
2023-04-28T07:53:39.017Z,21.20
2023-04-28T07:54:39.098Z,21.21
2023-04-28T07:55:40.959Z,21.22
2023-04-28T07:56:39.242Z,21.24
2023-04-28T07:57:39.324Z,21.27
2023-04-28T07:58:39.996Z,21.31
2023-04-28T07:59:38.998Z,21.35
2023-04-28T08:00:40.955Z,21.38
2023-04-28T08:01:38.939Z,21.39
2023-04-28T08:02:39.082Z,21.39
2023-04-28T08:03:39.740Z,21.37
2023-04-28T08:04:40.035Z,21.36
2023-04-28T08:05:38.994Z,21.34
2023-04-28T08:06:39.946Z,21.32
2023-04-28T08:07:39.990Z,21.30
2023-04-28T08:08:38.996Z,21.28
2023-04-28T08:09:39.040Z,21.26
2023-04-28T08:10:39.076Z,21.21
2023-04-28T08:11:40.127Z,21.21
2023-04-28T08:12:40.149Z,21.19
2023-04-28T08:13:40.207Z,21.17
2023-04-28T08:14:40.246Z,21.16
2023-04-28T08:15:40.307Z,21.13
2023-04-28T08:16:40.313Z,21.12
2023-04-28T08:17:40.423Z,21.11
2023-04-28T08:18:40.427Z,21.09
2023-04-28T08:19:40.453Z,21.08
2023-04-28T08:20:40.497Z,21.06
2023-04-28T08:21:40.537Z,21.03
2023-04-28T08:22:40.594Z,21.02
2023-04-28T08:23:40.671Z,21.00
2023-04-28T08:24:39.713Z,20.97
2023-04-28T08:25:40.783Z,20.95
2023-04-28T08:26:39.824Z,20.94
2023-04-28T08:27:40.880Z,20.94
2023-04-28T08:28:40.959Z,20.92
2023-04-28T08:29:40.994Z,20.91
2023-04-28T08:30:41.059Z,20.90
2023-04-28T08:31:41.260Z,20.91
2023-04-28T08:32:41.212Z,20.89
2023-04-28T08:33:40.273Z,20.88
2023-04-28T08:34:41.320Z,20.84
2023-04-28T08:35:41.412Z,20.83
2023-04-28T08:36:41.440Z,20.84
2023-04-28T08:37:41.512Z,20.84
2023-04-28T08:38:40.585Z,20.85
2023-04-28T08:39:40.629Z,20.85
2023-04-28T08:40:40.686Z,20.85
2023-04-28T08:41:40.742Z,20.85
2023-04-28T08:42:40.811Z,20.78
2023-04-28T08:43:41.905Z,20.70
2023-04-28T08:44:41.936Z,20.65
2023-04-28T08:45:40.827Z,20.66
2023-04-28T08:46:40.877Z,20.72
2023-04-28T08:47:41.952Z,20.80
2023-04-28T08:48:40.954Z,20.91
2023-04-28T08:49:42.100Z,21.03
2023-04-28T08:50:41.014Z,21.16
2023-04-28T08:51:42.160Z,21.28
2023-04-28T08:52:41.025Z,21.37
2023-04-28T08:54:06.195Z,21.44
2023-04-28T08:54:42.028Z,21.50
2023-04-28T08:55:42.457Z,21.57
2023-04-28T08:56:41.049Z,21.60
2023-04-28T08:57:41.507Z,21.62
2023-04-28T08:58:42.039Z,21.63
2023-04-28T08:59:40.993Z,21.64
2023-04-28T09:00:41.972Z,21.63
2023-04-28T09:01:42.045Z,21.63
2023-04-28T09:02:42.175Z,21.61
2023-04-28T09:03:42.129Z,21.61
2023-04-28T09:04:42.077Z,21.59
2023-04-28T09:05:42.101Z,21.57
2023-04-28T09:06:41.928Z,21.56
2023-04-28T09:07:41.932Z,21.53
2023-04-28T09:08:40.931Z,21.52
2023-04-28T09:09:41.997Z,21.51
2023-04-28T09:10:41.920Z,21.49
2023-04-28T09:11:41.906Z,21.47
2023-04-28T09:12:41.906Z,21.46
2023-04-28T09:13:40.895Z,21.45
2023-04-28T09:14:41.885Z,21.43
2023-04-28T09:15:41.892Z,21.42
2023-04-28T09:16:42.017Z,21.41
2023-04-28T09:17:40.881Z,21.40
2023-04-28T09:18:41.851Z,21.38
2023-04-28T09:19:41.890Z,21.38
2023-04-28T09:20:40.857Z,21.36
2023-04-28T09:21:40.835Z,21.35
2023-04-28T09:22:41.899Z,21.35
2023-04-28T09:23:41.819Z,21.34
2023-04-28T09:24:41.833Z,21.34
2023-04-28T09:25:41.860Z,21.32
2023-04-28T09:26:41.802Z,21.31
2023-04-28T09:27:40.801Z,21.30
2023-04-28T09:28:41.796Z,21.30
2023-04-28T09:29:40.768Z,21.30
2023-04-28T09:30:40.793Z,21.29
2023-04-28T09:31:41.801Z,21.27
2023-04-28T09:32:41.778Z,21.27
2023-04-28T09:33:40.776Z,21.27
2023-04-28T09:34:40.793Z,21.27
2023-04-28T09:35:41.874Z,21.25
2023-04-28T09:36:41.860Z,21.25
2023-04-28T09:37:41.947Z,21.25
2023-04-28T09:38:41.974Z,21.24
2023-04-28T09:39:40.996Z,21.24
2023-04-28T09:40:41.054Z,21.23
2023-04-28T09:41:42.082Z,21.23
2023-04-28T09:42:42.107Z,21.23
2023-04-28T09:43:42.183Z,21.23
2023-04-28T09:44:42.207Z,21.22
2023-04-28T09:45:42.240Z,21.21
2023-04-28T09:46:42.308Z,21.21
2023-04-28T09:47:42.370Z,21.20
2023-04-28T09:48:41.388Z,21.18
2023-04-28T09:49:41.419Z,21.16
2023-04-28T09:50:42.473Z,21.15
2023-04-28T09:51:42.549Z,20.98
2023-04-28T09:52:42.546Z,20.73
2023-04-28T09:53:42.545Z,20.65
2023-04-28T09:54:42.610Z,20.69
2023-04-28T09:55:42.632Z,20.78
2023-04-28T09:56:41.667Z,20.87
2023-04-28T09:57:41.716Z,20.98
2023-04-28T09:58:42.792Z,21.07
2023-04-28T09:59:42.828Z,21.14
2023-04-28T10:00:42.872Z,21.22
2023-04-28T10:01:43.106Z,21.27
2023-04-28T10:02:44.023Z,21.31
2023-04-28T10:03:43.286Z,21.37
2023-04-28T10:04:42.100Z,21.42
2023-04-28T10:05:43.072Z,21.49
2023-04-28T10:06:42.995Z,21.55
2023-04-28T10:07:41.999Z,21.59
2023-04-28T10:08:42.990Z,21.65
2023-04-28T10:09:43.003Z,21.71
2023-04-28T10:10:42.054Z,21.77
2023-04-28T10:11:42.073Z,21.79
2023-04-28T10:12:43.092Z,21.84
2023-04-28T10:13:43.111Z,21.86
2023-04-28T10:14:43.336Z,21.89
2023-04-28T10:15:42.190Z,21.91
2023-04-28T10:16:43.223Z,21.94
2023-04-28T10:17:42.314Z,21.97
2023-04-28T10:18:42.341Z,21.97
2023-04-28T10:19:42.444Z,22.01
2023-04-28T10:20:42.474Z,22.02
2023-04-28T10:21:43.554Z,22.05
2023-04-28T10:22:43.590Z,22.11
2023-04-28T10:23:42.676Z,22.11
2023-04-28T10:24:42.705Z,22.19
2023-04-28T10:25:43.780Z,22.24
2023-04-28T10:26:43.811Z,22.30
2023-04-28T10:27:43.867Z,22.34
2023-04-28T10:28:43.647Z,22.41
2023-04-28T10:29:42.942Z,22.42
2023-04-28T10:30:43.975Z,22.49
2023-04-28T10:31:44.101Z,22.52
2023-04-28T10:32:44.048Z,22.56
2023-04-28T10:33:43.092Z,22.61
2023-04-28T10:34:43.150Z,22.63
2023-04-28T10:35:44.146Z,22.66
2023-04-28T10:36:43.165Z,22.68
2023-04-28T10:37:43.225Z,22.71
2023-04-28T10:38:44.234Z,22.72
2023-04-28T10:39:43.308Z,22.74
2023-04-28T10:40:43.283Z,22.72
2023-04-28T10:41:44.312Z,22.68
2023-04-28T10:42:44.325Z,22.63
2023-04-28T10:43:44.363Z,22.60
2023-04-28T10:44:44.384Z,22.56
2023-04-28T10:45:44.447Z,22.50
2023-04-28T10:46:43.527Z,22.44
2023-04-28T10:47:43.612Z,22.41
2023-04-28T10:48:44.564Z,22.36
2023-04-28T10:49:44.636Z,22.32
2023-04-28T10:50:44.708Z,22.26
2023-04-28T10:51:44.792Z,22.20
2023-04-28T10:52:44.819Z,22.18
2023-04-28T10:53:45.265Z,22.13
2023-04-28T10:54:44.919Z,22.08
2023-04-28T10:55:45.010Z,22.05
2023-04-28T10:56:44.004Z,22.02
2023-04-28T10:57:44.997Z,21.97
2023-04-28T10:58:43.999Z,21.94
2023-04-28T10:59:44.978Z,21.92
2023-04-28T11:00:44.000Z,21.90
2023-04-28T11:01:45.045Z,21.87
2023-04-28T11:02:45.335Z,21.83
2023-04-28T11:03:45.158Z,21.80
2023-04-28T11:04:44.227Z,21.78
2023-04-28T11:05:44.019Z,21.75
2023-04-28T11:06:44.047Z,21.73
2023-04-28T11:07:45.039Z,21.70
2023-04-28T11:08:45.048Z,21.67
2023-04-28T11:09:45.043Z,21.66
2023-04-28T11:10:45.052Z,21.63
2023-04-28T11:11:44.097Z,21.60
2023-04-28T11:12:44.094Z,21.58
2023-04-28T11:13:45.113Z,21.55
2023-04-28T11:14:44.129Z,21.53
2023-04-28T11:15:44.165Z,21.51
2023-04-28T11:16:45.311Z,21.48
2023-04-28T11:17:45.218Z,21.46
2023-04-28T11:18:45.241Z,21.43
2023-04-28T11:19:45.382Z,21.41
2023-04-28T11:20:45.336Z,21.39
2023-04-28T11:21:44.342Z,21.36
2023-04-28T11:22:45.436Z,21.35
2023-04-28T11:23:44.398Z,21.32
2023-04-28T11:24:44.448Z,21.29
2023-04-28T11:25:45.521Z,21.28
2023-04-28T11:26:44.536Z,21.26
2023-04-28T11:27:45.601Z,21.25
2023-04-28T11:28:45.628Z,21.23
2023-04-28T11:29:44.658Z,21.22
2023-04-28T11:30:44.700Z,21.21
2023-04-28T11:31:45.837Z,21.20
2023-04-28T11:32:44.811Z,21.19
2023-04-28T11:33:44.841Z,21.18
2023-04-28T11:34:44.875Z,21.16
2023-04-28T11:35:45.984Z,21.16
2023-04-28T11:36:46.003Z,21.15
2023-04-28T11:37:46.024Z,21.14
2023-04-28T11:38:45.129Z,21.12
2023-04-28T11:39:46.105Z,21.10
2023-04-28T11:40:46.174Z,21.09
2023-04-28T11:41:46.243Z,21.11
2023-04-28T11:42:46.282Z,21.12
2023-04-28T11:43:47.354Z,21.12
2023-04-28T11:44:46.391Z,21.13
2023-04-28T11:45:45.527Z,21.13
2023-04-28T11:46:45.476Z,21.12
2023-04-28T11:47:45.538Z,21.13
2023-04-28T11:48:46.551Z,21.13
2023-04-28T11:49:46.801Z,21.12
2023-04-28T11:50:45.696Z,21.11
2023-04-28T11:51:45.694Z,21.09
2023-04-28T11:52:46.728Z,21.08
2023-04-28T11:53:46.785Z,21.05
2023-04-28T11:54:45.840Z,21.02
2023-04-28T11:55:46.903Z,20.96
2023-04-28T11:56:46.971Z,20.94
2023-04-28T11:57:46.019Z,20.94
2023-04-28T11:58:47.071Z,20.95
2023-04-28T11:59:46.662Z,20.95
2023-04-28T12:00:47.162Z,20.97
2023-04-28T12:01:47.193Z,21.00
2023-04-28T12:02:47.518Z,21.02
2023-04-28T12:03:47.440Z,21.04
2023-04-28T12:04:47.334Z,21.06
2023-04-28T12:05:47.403Z,21.08
2023-04-28T12:06:47.427Z,21.09
2023-04-28T12:07:47.441Z,21.10
2023-04-28T12:08:46.477Z,21.11
2023-04-28T12:09:47.515Z,21.12
2023-04-28T12:10:47.581Z,21.12
2023-04-28T12:11:47.587Z,21.13
2023-04-28T12:12:52.498Z,21.14
2023-04-28T12:13:47.604Z,21.14
2023-04-28T12:14:47.602Z,21.14
2023-04-28T12:15:47.687Z,21.14
2023-04-28T12:16:47.586Z,21.15
2023-04-28T12:17:47.673Z,21.14
2023-04-28T12:18:46.580Z,21.14
2023-04-28T12:19:47.553Z,21.15
2023-04-28T12:20:47.570Z,21.16
2023-04-28T12:21:47.557Z,21.14
2023-04-28T12:22:47.557Z,21.13
2023-04-28T12:23:46.527Z,21.11
2023-04-28T12:24:47.512Z,20.90
2023-04-28T12:25:47.507Z,20.60
2023-04-28T12:26:47.506Z,20.34
2023-04-28T12:27:47.490Z,20.21
2023-04-28T12:28:47.489Z,20.14
2023-04-28T12:29:47.491Z,20.09
2023-04-28T12:30:46.508Z,20.08
2023-04-28T12:31:47.550Z,20.03
2023-04-28T12:32:46.500Z,20.00
2023-04-28T12:33:46.444Z,19.99
2023-04-28T12:34:47.486Z,19.99
2023-04-28T12:35:47.437Z,19.99
2023-04-28T12:36:46.449Z,19.99
2023-04-28T12:37:47.429Z,19.99
2023-04-28T12:38:46.406Z,19.99
2023-04-28T12:39:47.510Z,19.96
2023-04-28T12:40:47.398Z,19.92
2023-04-28T12:41:46.398Z,19.93
2023-04-28T12:42:47.396Z,19.89
2023-04-28T12:43:46.380Z,19.81
2023-04-28T12:44:46.380Z,19.68
2023-04-28T12:45:47.425Z,19.56
2023-04-28T12:46:46.369Z,19.47
2023-04-28T12:47:46.467Z,19.43
2023-04-28T12:48:47.356Z,19.42
2023-04-28T12:49:46.706Z,19.49
2023-04-28T12:50:46.397Z,19.58
2023-04-28T12:51:47.413Z,19.69
2023-04-28T12:52:46.466Z,19.83
2023-04-28T12:53:46.502Z,19.94
2023-04-28T12:54:47.539Z,20.03
2023-04-28T12:55:46.565Z,20.12
2023-04-28T12:56:47.581Z,20.18
2023-04-28T12:57:47.556Z,20.25
2023-04-28T12:58:47.560Z,20.29
2023-04-28T12:59:47.580Z,20.34
2023-04-28T13:00:46.591Z,20.38
2023-04-28T13:01:47.688Z,20.42
2023-04-28T13:02:46.805Z,20.45
2023-04-28T13:03:48.062Z,20.49
2023-04-28T13:04:46.916Z,20.52
2023-04-28T13:05:47.799Z,20.55
2023-04-28T13:06:47.853Z,20.57
2023-04-28T13:07:47.903Z,20.59
2023-04-28T13:08:47.971Z,20.61
2023-04-28T13:09:48.306Z,20.62
2023-04-28T13:10:47.088Z,20.64
2023-04-28T13:11:47.144Z,20.65
2023-04-28T13:12:47.181Z,20.66
2023-04-28T13:13:48.258Z,20.68
2023-04-28T13:14:47.306Z,20.69
2023-04-28T13:15:47.466Z,20.69
2023-04-28T13:16:47.472Z,20.70
2023-04-28T13:17:47.500Z,20.71
2023-04-28T13:18:47.535Z,20.71
2023-04-28T13:19:48.674Z,20.72
2023-04-28T13:20:48.642Z,20.72
2023-04-28T13:21:47.691Z,20.73
2023-04-28T13:22:47.762Z,20.74
2023-04-28T13:23:48.803Z,20.74
2023-04-28T13:24:48.873Z,20.75
2023-04-28T13:25:48.939Z,20.76
2023-04-28T13:26:49.022Z,20.75
2023-04-28T13:27:49.051Z,20.76
2023-04-28T13:28:49.135Z,20.76
2023-04-28T13:29:48.163Z,20.76
2023-04-28T13:30:49.210Z,20.77
2023-04-28T13:31:49.315Z,20.77
2023-04-28T13:32:49.371Z,20.77
2023-04-28T13:33:48.384Z,20.77
2023-04-28T13:34:48.840Z,20.77
2023-04-28T13:35:48.509Z,20.77
2023-04-28T13:36:49.554Z,20.78
2023-04-28T13:37:49.616Z,20.78
2023-04-28T13:38:48.673Z,20.78
2023-04-28T13:39:48.734Z,20.79
2023-04-28T13:40:48.802Z,20.79
2023-04-28T13:41:48.854Z,20.79
2023-04-28T13:42:49.914Z,20.80
2023-04-28T13:43:48.969Z,20.81
2023-04-28T13:44:49.039Z,20.81
2023-04-28T13:45:50.122Z,20.81
2023-04-28T13:46:50.144Z,20.82
2023-04-28T13:47:49.232Z,20.82
2023-04-28T13:48:49.258Z,20.82
2023-04-28T13:49:50.314Z,20.82
2023-04-28T13:50:50.394Z,20.83
2023-04-28T13:51:50.440Z,20.83
2023-04-28T13:52:50.494Z,20.84
2023-04-28T13:53:50.558Z,20.83
2023-04-28T13:54:50.604Z,20.84
2023-04-28T13:55:50.108Z,20.84
2023-04-28T13:56:49.735Z,20.84
2023-04-28T13:57:49.795Z,20.84
2023-04-28T13:58:50.831Z,20.83
2023-04-28T13:59:50.898Z,20.84
2023-04-28T14:00:49.996Z,20.84
2023-04-28T14:01:50.133Z,20.84
2023-04-28T14:02:51.186Z,20.85
2023-04-28T14:03:50.327Z,20.84
2023-04-28T14:04:50.590Z,20.85
2023-04-28T14:05:51.262Z,20.84
2023-04-28T14:06:50.329Z,20.84
2023-04-28T14:07:51.346Z,20.85
2023-04-28T14:08:51.400Z,20.84
2023-04-28T14:09:51.473Z,20.84
2023-04-28T14:10:51.526Z,20.84
2023-04-28T14:11:50.583Z,20.83
2023-04-28T14:12:51.657Z,20.83
2023-04-28T14:13:50.693Z,20.83
2023-04-28T14:14:51.766Z,20.83
2023-04-28T14:15:58.974Z,20.82
2023-04-28T14:16:51.884Z,20.82
2023-04-28T14:17:50.880Z,20.83
2023-04-28T14:18:50.808Z,20.83
2023-04-28T14:19:51.808Z,20.84
2023-04-28T14:20:50.797Z,20.84
2023-04-28T14:21:51.793Z,20.85
2023-04-28T14:22:50.814Z,20.84
2023-04-28T14:23:51.776Z,20.85
2023-04-28T14:24:50.754Z,20.84
2023-04-28T14:25:50.757Z,20.83
2023-04-28T14:26:51.740Z,20.83
2023-04-28T14:27:50.744Z,20.82
2023-04-28T14:28:51.751Z,20.82
2023-04-28T14:29:51.722Z,20.82
2023-04-28T14:30:50.762Z,20.82
2023-04-28T14:31:51.719Z,20.81
2023-04-28T14:32:51.733Z,20.81
2023-04-28T14:33:50.695Z,20.81
2023-04-28T14:34:50.693Z,20.81
2023-04-28T14:35:50.682Z,20.81
2023-04-28T14:36:50.691Z,20.81
2023-04-28T14:37:50.672Z,20.80
2023-04-28T14:38:50.688Z,20.81
2023-04-28T14:39:51.658Z,20.81
2023-04-28T14:40:51.694Z,20.81
2023-04-28T14:41:50.775Z,20.81
2023-04-28T14:42:51.797Z,20.81
2023-04-28T14:43:50.842Z,20.81
2023-04-28T14:44:54.483Z,20.81
2023-04-28T14:45:50.910Z,20.80
2023-04-28T14:46:50.890Z,20.81
2023-04-28T14:47:51.969Z,20.80
2023-04-28T14:48:50.861Z,20.80
2023-04-28T14:49:50.864Z,20.79
2023-04-28T14:50:51.837Z,20.80
2023-04-28T14:51:50.843Z,20.80
2023-04-28T14:52:51.862Z,20.80
2023-04-28T14:53:51.839Z,20.79
2023-04-28T14:54:50.855Z,20.80
2023-04-28T14:55:50.826Z,20.80
2023-04-28T14:56:51.804Z,20.79
2023-04-28T14:57:51.809Z,20.79
2023-04-28T14:58:50.815Z,20.79
2023-04-28T14:59:51.801Z,20.78
2023-04-28T15:00:51.800Z,20.77
2023-04-28T15:01:51.792Z,20.77
2023-04-28T15:02:50.956Z,20.77
2023-04-28T15:03:51.911Z,20.76
2023-04-28T15:04:51.235Z,20.75
2023-04-28T15:05:51.763Z,20.76
2023-04-28T15:06:51.739Z,20.75
2023-04-28T15:07:50.729Z,20.75
2023-04-28T15:08:51.720Z,20.75
2023-04-28T15:09:50.726Z,20.74
2023-04-28T15:10:51.801Z,20.74
2023-04-28T15:11:51.873Z,20.74
2023-04-28T15:12:51.900Z,20.73
2023-04-28T15:13:51.960Z,20.73
2023-04-28T15:14:51.217Z,20.73
2023-04-28T15:15:52.139Z,20.73
2023-04-28T15:16:52.164Z,20.72
2023-04-28T15:17:52.255Z,20.73
2023-04-28T15:18:51.270Z,20.71
2023-04-28T15:19:51.345Z,20.71
2023-04-28T15:20:52.404Z,20.71
2023-04-28T15:21:51.461Z,20.71
2023-04-28T15:22:52.528Z,20.70
2023-04-28T15:23:51.604Z,20.71
2023-04-28T15:24:51.653Z,20.70
2023-04-28T15:25:51.714Z,20.70
2023-04-28T15:26:51.796Z,20.70
2023-04-28T15:27:51.844Z,20.69
2023-04-28T15:28:51.905Z,20.70
2023-04-28T15:29:52.970Z,20.70
2023-04-28T17:39:16.338Z,19.87
2023-04-28T17:40:30.639Z,20.08
2023-04-28T17:41:14.999Z,20.12
2023-04-28T17:43:34.500Z,19.97
2023-04-28T17:47:05.275Z,19.92
2023-04-28T17:49:24.315Z,20.11
2023-04-28T17:50:25.618Z,20.17
2023-04-28T18:01:54.085Z,19.83
2023-04-28T18:02:55.260Z,20.04
2023-04-28T18:03:55.035Z,20.10
2023-04-28T18:09:57.462Z,19.84
2023-04-28T18:10:57.107Z,20.04
2023-04-28T18:13:29.201Z,19.90
2023-04-28T18:14:29.923Z,20.08
2023-04-28T18:15:29.203Z,20.13
2023-04-28T18:16:29.844Z,20.15
2023-04-28T18:21:03.812Z,19.85
2023-04-28T18:22:05.070Z,20.04
2023-04-28T18:23:04.690Z,20.09
2023-04-28T18:24:04.653Z,20.13
2023-04-28T18:25:03.751Z,20.14
2023-04-28T18:26:04.779Z,20.16
2023-04-28T18:27:03.783Z,20.17
2023-04-28T18:28:03.787Z,20.17
2023-04-28T18:29:04.840Z,20.17
2023-04-28T18:42:28.473Z,19.75
2023-04-28T18:43:28.936Z,19.97
2023-04-28T18:44:28.506Z,20.03
2023-04-28T18:45:29.477Z,20.06
2023-04-28T18:46:29.562Z,20.09
2023-04-28T18:47:29.661Z,20.11
2023-04-28T18:51:07.585Z,19.82
2023-04-28T18:52:08.968Z,20.01
2023-04-28T18:53:07.581Z,20.06
2023-04-28T18:54:07.530Z,20.08
2023-04-28T18:55:07.543Z,20.10
2023-04-28T18:56:08.627Z,20.11
2023-04-28T19:11:38.416Z,19.70
2023-04-28T19:13:57.557Z,19.93
2023-04-28T19:14:57.883Z,19.98
2023-04-28T19:15:58.569Z,20.02
2023-04-28T19:16:57.455Z,20.05
2023-04-28T19:17:57.515Z,20.06
2023-04-28T19:18:57.467Z,20.06
2023-04-28T19:19:57.422Z,20.07
2023-04-28T19:32:48.747Z,19.66
2023-04-28T19:35:07.898Z,19.87
2023-04-28T19:36:07.879Z,19.94
2023-04-28T19:37:08.966Z,19.97
2023-04-28T19:48:09.799Z,19.64
2023-04-28T19:58:36.427Z,19.61
2023-04-28T20:01:19.976Z,19.66
2023-04-28T20:22:30.434Z,19.57
2023-04-28T20:23:30.603Z,19.79
2023-04-28T20:24:30.264Z,19.85
2023-04-28T20:26:49.700Z,19.86
2023-04-28T20:32:53.274Z,19.58
2023-04-28T20:33:54.257Z,19.79
2023-04-28T20:34:54.327Z,19.85
2023-04-28T20:37:12.942Z,19.86
2023-04-28T20:39:31.664Z,19.87
2023-04-28T20:40:32.928Z,19.90
2023-04-28T20:41:32.509Z,19.92
2023-04-28T20:43:50.561Z,19.84
2023-04-28T20:45:06.475Z,19.90
2023-04-28T20:46:09.815Z,19.86
2023-04-28T20:48:29.566Z,19.86
2023-04-28T20:53:56.400Z,19.56
2023-04-28T21:02:13.167Z,19.53
2023-04-28T21:04:32.332Z,19.65
2023-04-28T21:07:33.275Z,19.58
2023-04-28T21:08:33.255Z,19.77
2023-04-28T21:17:42.721Z,19.50
2023-04-28T21:18:42.805Z,19.70
2023-04-28T21:19:43.608Z,19.77
2023-04-28T21:20:43.622Z,19.82
2023-04-28T21:21:42.527Z,19.83
2023-04-28T21:32:28.759Z,19.48
2023-04-28T21:34:48.101Z,19.69
2023-04-28T21:35:49.304Z,19.75
2023-04-28T21:36:48.866Z,19.80
2023-04-28T21:37:48.867Z,19.82
2023-04-28T21:38:48.842Z,19.83
2023-04-28T21:41:07.246Z,19.68
2023-04-28T21:43:26.073Z,19.68
2023-04-28T21:45:45.445Z,19.76
2023-04-28T21:48:04.548Z,19.72
2023-04-28T21:49:04.811Z,19.78
2023-04-28T21:50:05.356Z,19.80
2023-04-28T21:52:23.583Z,19.73
2023-04-28T21:53:23.397Z,19.79
2023-04-28T21:54:24.596Z,19.81
2023-04-28T21:56:42.672Z,19.78
2023-04-28T21:59:03.376Z,19.57
2023-04-28T22:01:22.554Z,19.54
2023-04-28T22:03:41.987Z,19.69
2023-04-28T22:06:01.011Z,19.68
2023-04-28T22:07:01.735Z,19.74
2023-04-28T22:09:30.643Z,19.54
2023-04-28T22:10:32.582Z,19.71
2023-04-28T23:16:21.466Z,19.33
2023-04-28T23:18:40.864Z,19.56
2023-04-28T23:24:34.613Z,19.35
2023-04-28T23:25:35.461Z,19.55
2023-04-28T23:26:35.649Z,19.61
2023-04-28T23:27:35.811Z,19.65
2023-04-28T23:28:34.516Z,19.67
2023-04-28T23:30:53.638Z,19.62
2023-04-28T23:31:53.809Z,19.66
2023-04-28T23:34:12.811Z,19.62
2023-04-28T23:36:32.326Z,19.45
2023-04-28T23:42:12.256Z,19.34
2023-04-28T23:43:12.840Z,19.55
2023-04-28T23:45:31.293Z,19.56
2023-04-28T23:48:09.466Z,19.41
2023-04-28T23:49:23.147Z,19.59
2023-04-28T23:51:28.449Z,19.59
2023-04-28T23:52:29.537Z,19.64
2023-04-28T23:53:28.359Z,19.66
2023-04-28T23:55:47.402Z,19.58
2023-04-28T23:56:47.536Z,19.64
2023-04-28T23:59:06.899Z,19.58
